createdAt,value
2022-11-27T00:02:58.476Z,98978.00
2022-11-27T00:06:59.638Z,98983.00
2022-11-27T00:11:09.777Z,98979.00
2022-11-27T00:15:15.929Z,98962.00
2022-11-27T00:19:14.127Z,98955.00
2022-11-27T00:23:15.255Z,98946.00
2022-11-27T00:27:16.334Z,98949.00
2022-11-27T00:31:20.885Z,98941.00
2022-11-27T00:35:22.271Z,98941.00
2022-11-27T00:39:23.443Z,98936.00
2022-11-27T00:43:24.670Z,98936.00
2022-11-27T00:47:25.762Z,98937.00
2022-11-27T00:51:28.327Z,98947.00
2022-11-27T00:55:29.518Z,98943.00
2022-11-27T00:59:31.085Z,98940.00
2022-11-27T01:03:33.412Z,98928.00
2022-11-27T01:07:34.770Z,98921.00
2022-11-27T01:11:35.990Z,98919.00
2022-11-27T01:15:37.078Z,98915.00
2022-11-27T01:19:38.270Z,98910.00
2022-11-27T01:24:00.022Z,98902.00
2022-11-27T01:28:01.277Z,98901.00
2022-11-27T01:32:02.668Z,98889.00
2022-11-27T01:36:06.106Z,98894.00
2022-11-27T01:40:08.559Z,98896.00
2022-11-27T01:44:28.584Z,98891.00
2022-11-27T01:48:29.896Z,98891.00
2022-11-27T01:52:34.912Z,98893.00
2022-11-27T01:56:36.930Z,98913.00
2022-11-27T02:00:38.690Z,98890.00
2022-11-27T02:04:39.952Z,98924.00
2022-11-27T02:08:42.103Z,98910.00
2022-11-27T02:12:55.905Z,98900.00
2022-11-27T02:17:00.878Z,98892.00
2022-11-27T02:21:22.560Z,98896.00
2022-11-27T02:25:52.084Z,98880.00
2022-11-27T02:29:56.867Z,98881.00
2022-11-27T02:34:01.918Z,98873.00
2022-11-27T02:38:09.860Z,98868.00
2022-11-27T02:42:19.525Z,98872.00
2022-11-27T02:46:21.726Z,98867.00
2022-11-27T02:50:25.217Z,98876.00
2022-11-27T02:54:30.780Z,98871.00
2022-11-27T02:58:34.042Z,98864.00
2022-11-27T03:02:39.082Z,98865.00
2022-11-27T03:06:43.909Z,98859.00
2022-11-27T03:10:58.254Z,98855.00
2022-11-27T03:14:59.537Z,98859.00
2022-11-27T03:19:10.141Z,98863.00
2022-11-27T03:23:11.416Z,98854.00
2022-11-27T03:27:14.708Z,98847.00
2022-11-27T03:31:16.345Z,98846.00
2022-11-27T03:35:21.294Z,98850.00
2022-11-27T03:39:24.081Z,98842.00
2022-11-27T03:43:29.099Z,98824.00
2022-11-27T03:47:43.017Z,98820.00
2022-11-27T03:51:51.120Z,98812.00
2022-11-27T03:56:04.311Z,98811.00
2022-11-27T04:00:07.657Z,98801.00
2022-11-27T04:04:08.991Z,98806.00
2022-11-27T04:08:10.327Z,98803.00
2022-11-27T04:12:11.562Z,98796.00
2022-11-27T04:16:12.895Z,98787.00
2022-11-27T04:20:14.843Z,98796.00
2022-11-27T04:24:16.305Z,98784.00
2022-11-27T04:28:17.760Z,98792.00
2022-11-27T04:32:18.814Z,98792.00
2022-11-27T04:36:20.003Z,98776.00
2022-11-27T04:40:21.333Z,98768.00
2022-11-27T04:44:22.811Z,98780.00
2022-11-27T04:48:24.145Z,98794.00
2022-11-27T04:52:25.299Z,98773.00
2022-11-27T04:56:26.639Z,98774.00
2022-11-27T05:00:27.777Z,98770.00
2022-11-27T05:04:29.420Z,98777.00
2022-11-27T05:08:32.279Z,98778.00
2022-11-27T05:12:33.478Z,98762.00
2022-11-27T05:16:34.905Z,98763.00
2022-11-27T05:20:36.143Z,98764.00
2022-11-27T05:24:37.646Z,98754.00
2022-11-27T05:28:39.027Z,98742.00
2022-11-27T05:32:40.099Z,98743.00
2022-11-27T05:36:41.701Z,98733.00
2022-11-27T05:40:42.879Z,98744.00
2022-11-27T05:44:44.100Z,98757.00
2022-11-27T05:48:45.367Z,98749.00
2022-11-27T05:52:46.703Z,98744.00
2022-11-27T05:56:47.792Z,98741.00
2022-11-27T06:00:49.005Z,98724.00
2022-11-27T06:04:50.264Z,98719.00
2022-11-27T06:08:51.635Z,98712.00
2022-11-27T06:12:52.895Z,98708.00
2022-11-27T06:16:54.218Z,98701.00
2022-11-27T06:20:55.474Z,98715.00
2022-11-27T06:24:56.725Z,98697.00
2022-11-27T06:28:59.531Z,98703.00
2022-11-27T06:33:00.796Z,98708.00
2022-11-27T06:37:02.056Z,98707.00
2022-11-27T06:41:09.328Z,98700.00
2022-11-27T06:45:11.031Z,98690.00
2022-11-27T06:49:12.211Z,98681.00
2022-11-27T06:53:13.436Z,98684.00
2022-11-27T06:57:14.817Z,98680.00
2022-11-27T07:01:17.043Z,98680.00
2022-11-27T07:05:18.409Z,98679.00
2022-11-27T07:09:19.774Z,98671.00
2022-11-27T07:13:21.106Z,98665.00
2022-11-27T07:17:22.331Z,98648.00
2022-11-27T07:21:24.421Z,98647.00
2022-11-27T07:25:25.716Z,98652.00
2022-11-27T07:29:26.766Z,98647.00
2022-11-27T07:33:27.884Z,98662.00
2022-11-27T07:37:32.955Z,98668.00
2022-11-27T07:41:34.434Z,98681.00
2022-11-27T07:45:35.667Z,98677.00
2022-11-27T07:49:36.784Z,98666.00
2022-11-27T07:53:39.705Z,98660.00
2022-11-27T07:57:41.890Z,98637.00
2022-11-27T08:01:44.358Z,98625.00
2022-11-27T08:05:45.803Z,98611.00
2022-11-27T08:09:47.013Z,98626.00
2022-11-27T08:13:49.569Z,98622.00
2022-11-27T08:17:50.848Z,98611.00
2022-11-27T08:21:52.306Z,98605.00
2022-11-27T08:25:53.433Z,98618.00
2022-11-27T08:29:54.677Z,98616.00
2022-11-27T08:33:55.728Z,98612.00
2022-11-27T08:37:56.876Z,98613.00
2022-11-27T08:41:58.237Z,98610.00
2022-11-27T08:45:59.713Z,98608.00
2022-11-27T08:50:01.057Z,98612.00
2022-11-27T08:54:02.664Z,98603.00
2022-11-27T08:58:04.425Z,98610.00
2022-11-27T09:02:06.027Z,98614.00
2022-11-27T09:06:09.275Z,98610.00
2022-11-27T09:10:10.826Z,98602.00
2022-11-27T09:14:12.248Z,98600.00
2022-11-27T09:18:13.290Z,98589.00
2022-11-27T09:22:14.498Z,98608.00
2022-11-27T09:26:16.702Z,98599.00
2022-11-27T09:30:18.203Z,98603.00
2022-11-27T09:34:19.775Z,98594.00
2022-11-27T09:38:21.316Z,98594.00
2022-11-27T09:42:29.171Z,98585.00
2022-11-27T09:46:36.773Z,98584.00
2022-11-27T09:50:42.007Z,98576.00
2022-11-27T09:54:56.666Z,98575.00
2022-11-27T09:58:59.822Z,98562.00
2022-11-27T10:03:01.182Z,98566.00
2022-11-27T10:07:12.514Z,98563.00
2022-11-27T10:11:23.486Z,98559.00
2022-11-27T10:15:49.667Z,98548.00
2022-11-27T10:19:54.729Z,98551.00
2022-11-27T10:24:05.284Z,98542.00
2022-11-27T10:28:25.335Z,98530.00
2022-11-27T10:32:54.676Z,98516.00
2022-11-27T10:36:42.973Z,98515.00
2022-11-27T10:41:09.808Z,98502.00
2022-11-27T10:45:33.923Z,98508.00
2022-11-27T10:49:38.708Z,98477.00
2022-11-27T10:53:42.612Z,98472.00
2022-11-27T10:58:02.394Z,98468.00
2022-11-27T11:02:05.060Z,98471.00
2022-11-27T11:06:20.669Z,98458.00
2022-11-27T11:10:28.631Z,98450.00
2022-11-27T11:14:29.799Z,98438.00
2022-11-27T11:18:34.016Z,98428.00
2022-11-27T11:22:35.173Z,98437.00
2022-11-27T11:26:45.881Z,98426.00
2022-11-27T11:30:59.764Z,98407.00
2022-11-27T11:35:04.668Z,98403.00
2022-11-27T11:39:06.475Z,98414.00
2022-11-27T11:43:23.631Z,98413.00
2022-11-27T11:47:27.304Z,98408.00
2022-11-27T11:51:58.002Z,98397.00
2022-11-27T11:56:19.484Z,98400.00
2022-11-27T12:00:28.078Z,98399.00
2022-11-27T12:04:54.148Z,98404.00
2022-11-27T12:09:11.192Z,98420.00
2022-11-27T12:13:31.689Z,98413.00
2022-11-27T12:17:46.482Z,98406.00
2022-11-27T12:22:08.172Z,98401.00
2022-11-27T12:26:31.511Z,98382.00
2022-11-27T12:30:57.885Z,98375.00
2022-11-27T12:35:21.073Z,98362.00
2022-11-27T12:39:34.419Z,98359.00
2022-11-27T12:43:42.458Z,98356.00
2022-11-27T12:47:47.519Z,98349.00
2022-11-27T12:52:01.640Z,98333.00
2022-11-27T12:56:20.377Z,98304.00
2022-11-27T13:00:24.490Z,98313.00
2022-11-27T13:04:42.060Z,98315.00
2022-11-27T13:08:56.413Z,98309.00
2022-11-27T13:13:09.740Z,98304.00
2022-11-27T13:17:15.975Z,98278.00
2022-11-27T13:21:22.183Z,98275.00
2022-11-27T13:25:24.551Z,98313.00
2022-11-27T13:29:32.508Z,98304.00
2022-11-27T13:33:40.420Z,98294.00
2022-11-27T13:37:41.761Z,98272.00
2022-11-27T13:41:43.416Z,98268.00
2022-11-27T13:45:44.728Z,98272.00
2022-11-27T13:49:49.701Z,98264.00
2022-11-27T13:53:51.395Z,98259.00
2022-11-27T13:57:54.644Z,98265.00
2022-11-27T14:01:59.076Z,98295.00
2022-11-27T14:06:00.358Z,98272.00
2022-11-27T14:10:08.073Z,98252.00
2022-11-27T14:14:24.556Z,98248.00
2022-11-27T14:18:27.691Z,98215.00
2022-11-27T14:23:09.885Z,98181.00
2022-11-27T14:26:47.946Z,98156.00
2022-11-27T14:30:51.656Z,98151.00
2022-11-27T14:34:53.102Z,98145.00
2022-11-27T14:38:54.367Z,98141.00
2022-11-27T14:42:59.298Z,98140.00
2022-11-27T14:47:03.109Z,98156.00
2022-11-27T14:51:04.476Z,98163.00
2022-11-27T14:55:09.689Z,98166.00
2022-11-27T14:59:17.402Z,98149.00
2022-11-27T15:03:18.972Z,98164.00
2022-11-27T15:07:24.525Z,98162.00
2022-11-27T15:11:54.042Z,98153.00
2022-11-27T15:15:34.352Z,98137.00
2022-11-27T15:19:36.836Z,98121.00
2022-11-27T15:23:41.837Z,98135.00
2022-11-27T15:27:46.432Z,98132.00
2022-11-27T15:31:52.029Z,98133.00
2022-11-27T15:35:55.206Z,98140.00
2022-11-27T15:39:58.549Z,98145.00
2022-11-27T15:43:59.666Z,98142.00
2022-11-27T15:48:02.203Z,98137.00
2022-11-27T15:52:03.669Z,98141.00
2022-11-27T15:56:05.985Z,98144.00
2022-11-27T16:00:11.220Z,98118.00
2022-11-27T16:04:12.488Z,98112.00
2022-11-27T16:08:13.843Z,98132.00
2022-11-27T16:12:15.002Z,98112.00
2022-11-27T16:16:16.368Z,98108.00
2022-11-27T16:20:17.897Z,98100.00
2022-11-27T16:24:19.240Z,98064.00
2022-11-27T16:28:20.313Z,98094.00
2022-11-27T16:32:21.448Z,98096.00
2022-11-27T16:36:23.775Z,98100.00
2022-11-27T16:40:24.943Z,98087.00
2022-11-27T16:44:26.215Z,98080.00
2022-11-27T16:48:27.647Z,98083.00
2022-11-27T16:52:28.948Z,98084.00
2022-11-27T16:56:32.051Z,98073.00
2022-11-27T17:00:33.239Z,98073.00
2022-11-27T17:04:34.685Z,98065.00
2022-11-27T17:08:36.470Z,98067.00
2022-11-27T17:12:37.678Z,98077.00
2022-11-27T17:16:40.763Z,98072.00
2022-11-27T17:20:42.683Z,98054.00
2022-11-27T17:24:44.130Z,98084.00
2022-11-27T17:28:45.817Z,98080.00
2022-11-27T17:32:46.876Z,98080.00
2022-11-27T17:36:49.826Z,98068.00
2022-11-27T17:40:51.135Z,98060.00
2022-11-27T17:44:52.263Z,98061.00
2022-11-27T17:48:55.294Z,98041.00
2022-11-27T17:52:56.347Z,98048.00
2022-11-27T17:56:57.645Z,98043.00
2022-11-27T18:00:59.549Z,98029.00
2022-11-27T18:05:00.827Z,98028.00
2022-11-27T18:09:03.095Z,98010.00
2022-11-27T18:13:04.315Z,97993.00
2022-11-27T18:17:06.658Z,97988.00
2022-11-27T18:21:15.322Z,97986.00
2022-11-27T18:25:13.919Z,97970.00
2022-11-27T18:29:15.169Z,97965.00
2022-11-27T18:33:16.398Z,97943.00
2022-11-27T18:37:17.807Z,97939.00
2022-11-27T18:41:21.411Z,97920.00
2022-11-27T18:45:33.479Z,97940.00
2022-11-27T18:49:25.894Z,97938.00
2022-11-27T18:53:27.091Z,97929.00
2022-11-27T18:57:28.517Z,97925.00
2022-11-27T19:01:38.129Z,97904.00
2022-11-27T19:05:35.831Z,97907.00
2022-11-27T19:09:37.183Z,97912.00
2022-11-27T19:13:39.403Z,97905.00
2022-11-27T19:17:40.552Z,97886.00
2022-11-27T19:21:41.804Z,97893.00
2022-11-27T19:25:44.053Z,97909.00
2022-11-27T19:29:45.846Z,97899.00
2022-11-27T19:33:51.803Z,97889.00
2022-11-27T19:37:53.090Z,97846.00
2022-11-27T19:41:54.417Z,97875.00
2022-11-27T19:45:56.099Z,97858.00
2022-11-27T19:49:57.297Z,97858.00
2022-11-27T19:54:01.207Z,97841.00
2022-11-27T19:58:03.573Z,97821.00
2022-11-27T20:02:05.325Z,97814.00
2022-11-27T20:06:10.912Z,97831.00
2022-11-27T20:10:12.262Z,97836.00
2022-11-27T20:14:14.187Z,97847.00
2022-11-27T20:18:15.552Z,97551.00
2022-11-27T20:22:17.080Z,97858.00
2022-11-27T20:26:21.940Z,97855.00
2022-11-27T20:30:23.440Z,97847.00
2022-11-27T20:34:26.098Z,97838.00
2022-11-27T20:38:27.517Z,97856.00
2022-11-27T20:42:28.714Z,97841.00
2022-11-27T20:46:32.086Z,97825.00
2022-11-27T20:50:34.638Z,97828.00
2022-11-27T20:54:36.478Z,97832.00
2022-11-27T20:58:39.401Z,97833.00
2022-11-27T21:02:41.132Z,97827.00
2022-11-27T21:06:44.243Z,97819.00
2022-11-27T21:10:45.833Z,97821.00
2022-11-27T21:14:47.341Z,97822.00
2022-11-27T21:18:54.288Z,97821.00
2022-11-27T21:22:55.730Z,97817.00
2022-11-27T21:26:57.392Z,97798.00
2022-11-27T21:31:16.534Z,97802.00
2022-11-27T21:35:17.890Z,97799.00
2022-11-27T21:39:20.616Z,97783.00
2022-11-27T21:43:23.023Z,97778.00
2022-11-27T21:47:24.486Z,97783.00
2022-11-27T21:51:27.262Z,97784.00
2022-11-27T21:55:29.032Z,97794.00
2022-11-27T21:59:30.113Z,97792.00
2022-11-27T22:03:32.281Z,97771.00
2022-11-27T22:07:34.609Z,97766.00
2022-11-27T22:11:36.318Z,97749.00
2022-11-27T22:15:37.607Z,97750.00
2022-11-27T22:19:40.591Z,97750.00
2022-11-27T22:23:42.250Z,97748.00
2022-11-27T22:27:43.545Z,97754.00
2022-11-27T22:31:44.663Z,97757.00
2022-11-27T22:35:45.751Z,97752.00
2022-11-27T22:39:47.237Z,97739.00
2022-11-27T22:43:48.896Z,97747.00
2022-11-27T22:47:50.105Z,97742.00
2022-11-27T22:51:51.183Z,97741.00
2022-11-27T22:55:52.530Z,97733.00
2022-11-27T22:59:53.734Z,97724.00
2022-11-27T23:03:55.233Z,97712.00
2022-11-27T23:07:56.608Z,97713.00
2022-11-27T23:11:58.382Z,97712.00
2022-11-27T23:16:07.475Z,97701.00
2022-11-27T23:20:09.246Z,97694.00
2022-11-27T23:24:14.626Z,97689.00
2022-11-27T23:28:15.964Z,97686.00
2022-11-27T23:32:17.184Z,97568.00
2022-11-27T23:36:18.353Z,97685.00
2022-11-27T23:40:19.962Z,97685.00
2022-11-27T23:44:21.320Z,97668.00
2022-11-27T23:48:22.358Z,97671.00
2022-11-27T23:52:23.724Z,97671.00
2022-11-27T23:56:27.922Z,97698.00
